Aktualne dane pomiarowe

Uwaga, wersja testowa! Automatyczne pobieranie danych za pomocą narzędzi lub skryptów to umożliwiających jest zabronione.

Dane meteo z obszaru Polski uzyskane na podstawie depesz SYNOP pobieranych co godzinę z NWS. Najedź myszką na symbol przedstawiony w tabeli, aby uzyskać informacje co do jego znaczenia. Prosimy pamiętać, że to testowa wersja strony, która jeszcze nie jest ukończona. Stworzono również jest krótki FAQ dotyczący korzystania z tej podstrony Anomalie temperatury w chwili obecnej odniesione są do okresu referencyjnego 1951-2016. Okres ten będzie później zmieniony na 1981-2010. Kliknij ikonę aby pobrać plik CSV. Kliknij ikonę aby wygenerować mapę synoptyczną dla danego terminu.

Wybierz Datę:    

        

Krosno (12670)

Dane terminowe dla wybranej stacji. Kliknij datę, aby otrzymać dane z tego terminu dla wszystkich stacji.

TemperaturaZachmurzenieWiatrCiśnienieOpadyPogoda
 Data t td wb tx tn tg rh  Nt Nl Cl Cm Ch ws wd g1 g2 wx mslp ppp ch 24h 12h t ww ww w1 w2  
2019-05-07 23:00:00 6.1 2.0 3.8--- 7518.0wxwxwxwx3wx--31018.2 977.8 0.7---------
2019-05-07 22:00:00 7.0 2.3 4.3--- 7219.0wxwxwxwx2wx--21018.1 977.8 1.0---------
2019-05-07 21:00:00 7.7 2.0 4.6--- 6726.0wxwxwxwx2wx--21017.6 977.4 1.1---------
2019-05-07 20:00:00 7.7 2.0 4.6--- 6730.0wx-wx2wx--21017.3 977.1 1.4---------
2019-05-07 19:00:00 7.9 1.7 4.6--- 6535.0wx-wx2wx--21016.9 976.8 1.4---------
2019-05-07 18:00:00 9.2 1.8 5.3 12.1 7.1- 6040.0wxwxwxwx4wx-1041016.2 976.3 1.0- 0.012------
2019-05-07 17:00:00 10.3 1.4 5.7--- 5440.0wxwxwx4wx--41015.4 975.7 0.5---------
2019-05-07 16:00:00 10.5 1.0 5.7--- 5245.0wxwxwxwx4wx-841015.1 975.4 0.2---------
2019-05-07 15:00:00 11.2 1.4 6.2--- 5140.0wxwxwxwx5wx101051014.9 975.3 0.3---------
2019-05-07 14:00:00 10.5 1.3 5.8--- 5335.0wxwxwxwx5wx--51014.9 975.2 0.2---------
2019-05-07 13:00:00 10.8 0.5 5.7--- 4945.0wxwxwxwx4wx-1041014.8 975.2 0.2---------
2019-05-07 12:00:00 10.4 0.1 5.3--- 4935.0wxwxwxwx6wx-1161014.7 975.0 0.4- 0.06------
2019-05-07 11:00:00 10.6 0.3 5.5--- 4935.0wxwxwxwx5wx--51014.7 975.0 0.6---------
2019-05-07 10:00:00 9.1 1.3 5.0--- 5835.0wxwxwx4wx--41014.9 975.0 1.0---------
2019-05-07 09:00:00 9.6 0.7 5.1--- 5430.0wxwxwxwx5wx-1151014.4 974.6 1.0---------
2019-05-07 08:00:00 9.3 0.7 4.9--- 5530.0wxwxwxwx5wx-1051014.2 974.4 1.1---------
2019-05-07 07:00:00 8.0 0.9 4.3--- 6135.0wxwxwxwxwx4wx--41014.0 974.0 1.1---------
2019-05-07 06:00:00 7.1 0.3 3.6 7.2 4.2 4 6227.0wx-wx5wx-951013.7 973.6 1.0 1.6-12------
2019-05-07 05:00:00 6.3 0.8 3.3--- 6835.0wx-wx4wx--41013.5 973.3 0.8---------
2019-05-07 04:00:00 6.0 0.5 3.1--- 6830.0wx-wx4wx--41013.1 972.9 0.4---------
2019-05-07 03:00:00 6.0 0.5 3.1--- 6840.0wxwxwxwx5wx--51012.8 972.6 0.2---------
2019-05-07 02:00:00 5.7 0.8 3.0--- 7145.0wxwxwx3wx--31012.8 972.5 0.1---------
2019-05-07 01:00:00 5.7 0.6 2.9--- 7050.0wxwxwx3wx--31012.8 972.5 -0.3---------
2019-05-07 00:00:00 5.8 0.9 3.1--- 7150.0wxwxwx3wx--31012.6 972.4 -0.4--6wx-w1--
2019-05-06 23:00:00 5.4 1.5 3.2--- 7640.0wxwxwx3wx--31012.7 972.4 -0.4---------
2019-05-06 22:00:00 4.5 1.9 2.9--- 8340.0wxwxwx3wx--31013.3 972.8 0.1---------
2019-05-06 21:00:00 4.3 1.7 2.7--- 8323.0wxwxwx2wx--21013.3 972.8 0.1---wx-w1--
2019-05-06 20:00:00 4.3 2.3 3.0--- 8716.0wxwxwx2wx--21013.3 972.8 0.4---------
2019-05-06 19:00:00 4.2 2.2 2.9--- 8714.0wxwxwx2wx---1013.2 972.7 0.4---wx---
2019-05-06 18:00:00 4.3 2.3 3.0 5.4 3.8- 8721.0wxwxwx2wx-1121013.2 972.7 0.9- 2.012wx-w1w2--
2019-05-06 17:00:00 4.3 2.0 2.9--- 8527.0wxwxwx2wx--21012.9 972.4 0.7---wx-w1w2--
2019-05-06 16:00:00 4.4 1.8 2.8--- 8328.0wxwxwx5wx-1151012.8 972.3 0.9---wx-w1w2--
2019-05-06 15:00:00 5.2 1.7 3.2--- 7820.0wxwxwx5wx-1051012.1 971.8 0.3---wx-w1w2--
2019-05-06 14:00:00 4.5 2.0 3.0--- 8421.0wxwxwx4wx-941012.1 971.7 0.7---wx-w1w2--
2019-05-06 13:00:00 4.2 1.9 2.8--- 8511.0wxwxwx5wx-1051011.8 971.4 0.4---wx-w1w2--
2019-05-06 12:00:00 4.2 1.4 2.5--- 8210.0wxwxwx5wx-1351011.9 971.5 0.6- 0.76wx-w1w2--
2019-05-06 11:00:00 5.3 0.3 2.6--- 7013.0wxwxwx7wx--71011.3 971.0 0.3---wx-w1w2--
2019-05-06 10:00:00 5.0 0.0 2.3--- 7020.0wxwxwx5wx--51011.3 971.0 0.3---wx-w1w2--
2019-05-06 09:00:00 4.5 0.4 2.2--- 7520.0wxwxwx5wx--51011.3 970.9 0.2---wx-w1w2--
2019-05-06 08:00:00 4.3 0.6 2.2--- 7717.0wxwxwx5wx--51011.1 970.7 0.1---wx-w1--
2019-05-06 07:00:00 4.1 1.1 2.3--- 8120.0wxwxwx5wx--51011.1 970.7 0.0---wx---
2019-05-06 06:00:00 3.8 2.0 2.6 5.2 3.7 4 8813.0wxwxwx5wx--51011.2 970.7 0.2 10.6 4.012wx-w1w2--
2019-05-06 05:00:00 3.8 2.9 3.1--- 948.0wxwxwx4wx--41011.1 970.6 -0.1---wx-w1w2--
2019-05-06 04:00:00 3.9 2.9 3.2--- 9311.0wxwxwx3wx--31011.2 970.7 -0.2---wx-w1w2--
2019-05-06 03:00:00 4.1 3.1 3.4--- 9316.0wxwxwx4wx--41010.9 970.5 -0.4---wx-w1w2--
2019-05-06 02:00:00 4.0 3.0 3.3--- 9317.0wxwxwx4wx--41011.1 970.7 -0.6---wx-w1w2--
2019-05-06 01:00:00 4.1 3.1 3.4--- 9313.0wxwxwx3wx--31011.3 970.9 -0.7---wx-w1w2--
2019-05-06 00:00:00 4.3 3.4 3.6--- 9412.0wxwxwx3wx--31011.3 970.9 -0.9- 3.06wx-w1w2--
6.3 ms

 

Print Friendly, PDF & Email